Time;durP1;ratioP1;P1;durP2;ratioP2;P2;SDS_P1;SDS_P2;PMS_P1;PMS_P2;Temp;Humidity;BMP_temperature;BMP_pressure;BME280_temperature;BME280_humidity;BME280_pressure;Samples;Min_cycle;Max_cycle;Signal;HPM_P1;HPM_P2
2021/10/12 09:04:48;;;;;;;4.43;2.03;;;14.80;99.90;;;;;;4936805;29;20668;-77
2021/10/12 09:07:18;;;;;;;11.87;1.93;;;14.90;99.90;;;;;;4955280;29;20307;-72
2021/10/12 09:09:46;;;;;;;5.77;2.50;;;15.10;99.90;;;;;;4960590;29;20207;-82
2021/10/12 09:12:13;;;;;;;6.73;1.90;;;15.30;99.90;;;;;;4960050;29;20259;-81
2021/10/12 09:14:57;;;;;;;4.23;1.70;;;15.60;99.90;;;;;;4960168;29;20208;-80
2021/10/12 09:17:31;;;;;;;5.47;1.80;;;15.80;99.90;;;;;;4956007;29;20274;-71
2021/10/12 09:19:58;;;;;;;8.10;1.80;;;15.90;99.90;;;;;;4956335;29;20282;-77
2021/10/12 09:22:25;;;;;;;11.40;2.00;;;16.00;99.90;;;;;;4956528;29;20235;-74
2021/10/12 09:24:52;;;;;;;7.27;2.27;;;16.10;99.90;;;;;;4956006;29;20315;-87
2021/10/12 09:27:22;;;;;;;5.60;1.73;;;16.10;99.90;;;;;;4956549;29;20208;-83
2021/10/12 09:29:50;;;;;;;8.83;1.80;;;16.00;99.90;;;;;;4956604;29;20204;-85
2021/10/12 09:32:22;;;;;;;8.00;1.97;;;15.90;99.90;;;;;;4951814;29;20247;-78
2021/10/12 09:35:00;;;;;;;7.00;1.90;;;15.90;99.90;;;;;;4955302;29;20678;-78
2021/10/12 09:37:27;;;;;;;5.57;1.53;;;15.80;99.90;;;;;;4937514;29;20561;-86
2021/10/12 09:39:55;;;;;;;5.30;1.73;;;15.70;99.90;;;;;;4938687;29;20216;-78
2021/10/12 09:42:22;;;;;;;6.10;1.20;;;15.70;99.90;;;;;;4938162;29;20287;-84
2021/10/12 09:44:54;;;;;;;8.43;1.90;;;15.80;99.90;;;;;;4947189;29;20208;-84
2021/10/12 09:47:22;;;;;;;10.83;2.23;;;15.90;99.90;;;;;;4956000;29;20299;-75
2021/10/12 09:49:50;;;;;;;9.47;2.67;;;15.90;99.90;;;;;;4952057;29;20223;-77
2021/10/12 09:52:21;;;;;;;5.03;1.60;;;16.10;99.90;;;;;;4951707;28;20287;-79
2021/10/12 09:54:49;;;;;;;4.17;1.40;;;16.00;99.90;;;;;;4956247;29;20219;-76
2021/10/12 09:57:17;;;;;;;5.37;2.30;;;16.10;99.90;;;;;;4956549;29;20208;-79
2021/10/12 09:59:46;;;;;;;5.03;2.27;;;16.20;99.90;;;;;;4956504;28;20299;-79
2021/10/12 10:02:16;;;;;;;5.70;1.40;;;16.30;99.90;;;;;;4957187;28;20232;-78
2021/10/12 10:04:45;;;;;;;5.43;1.80;;;16.30;99.90;;;;;;4956559;29;20224;-79
2021/10/12 10:07:19;;;;;;;3.33;1.40;;;16.40;99.90;;;;;;4956612;29;20219;-78
2021/10/12 10:09:49;;;;;;;5.67;1.47;;;16.60;99.90;;;;;;4956584;29;20200;-78
2021/10/12 10:12:16;;;;;;;4.83;1.50;;;16.90;99.90;;;;;;4955474;28;20722;-78
2021/10/12 10:14:43;;;;;;;4.33;1.20;;;17.10;99.90;;;;;;4956245;29;20230;-77
2021/10/12 10:17:11;;;;;;;2.20;1.00;;;16.90;99.90;;;;;;4956307;29;20215;-77
2021/10/12 10:19:42;;;;;;;4.17;1.20;;;17.00;99.90;;;;;;4956080;29;20218;-75
2021/10/12 10:22:39;;;;;;;3.00;1.07;;;17.10;99.90;;;;;;4955921;29;20236;-78
2021/10/12 10:25:25;;;;;;;4.90;1.00;;;17.20;99.90;;;;;;4956530;28;20219;-80
2021/10/12 10:27:52;;;;;;;7.07;1.30;;;17.10;99.90;;;;;;4955725;28;20721;-78
2021/10/12 10:30:25;;;;;;;5.37;1.43;;;17.10;99.90;;;;;;4956234;29;20216;-79
2021/10/12 10:32:53;;;;;;;2.20;0.87;;;17.30;99.90;;;;;;4956060;28;20692;-78
2021/10/12 10:35:35;;;;;;;3.97;0.87;;;17.30;99.90;;;;;;4956465;29;20241;-79
2021/10/12 10:38:28;;;;;;;2.90;0.80;;;17.10;99.90;;;;;;4955943;29;20552;-78
2021/10/12 10:41:22;;;;;;;3.30;1.10;;;17.10;99.90;;;;;;4953234;28;20231;-78
2021/10/12 10:44:01;;;;;;;3.23;1.10;;;16.90;99.90;;;;;;4955673;28;20546;-77
2021/10/12 10:46:44;;;;;;;3.20;0.80;;;16.90;99.90;;;;;;4955551;29;20206;-78
2021/10/12 10:49:14;;;;;;;4.07;1.20;;;17.10;99.90;;;;;;4955846;29;20270;-80
2021/10/12 10:51:55;;;;;;;7.27;1.67;;;17.20;99.90;;;;;;4955540;28;20228;-80
2021/10/12 10:55:04;;;;;;;4.87;0.80;;;17.00;99.90;;;;;;4955289;29;20207;-77
2021/10/12 10:57:33;;;;;;;5.77;1.30;;;17.20;99.90;;;;;;4955870;29;20208;-79
2021/10/12 11:00:24;;;;;;;2.50;1.20;;;17.30;99.90;;;;;;4955558;29;20208;-78
2021/10/12 11:02:51;;;;;;;2.60;1.03;;;17.20;99.90;;;;;;4945508;28;20232;-78
2021/10/12 11:05:39;;;;;;;2.27;0.87;;;17.20;99.90;;;;;;4955514;29;20219;-78
2021/10/12 11:08:10;;;;;;;2.97;1.10;;;17.00;99.90;;;;;;4955724;29;20208;-78
2021/10/12 11:10:37;;;;;;;5.30;1.70;;;17.00;99.90;;;;;;4955120;29;20219;-78
2021/10/12 11:13:05;;;;;;;5.73;1.00;;;17.00;99.90;;;;;;4955202;28;20718;-80
2021/10/12 11:15:32;;;;;;;3.70;0.90;;;16.80;99.90;;;;;;4955250;29;20215;-79
2021/10/12 11:18:07;;;;;;;5.67;1.70;;;16.60;99.90;;;;;;4955523;29;20320;-81
2021/10/12 11:20:43;;;;;;;1.73;0.90;;;16.60;99.90;;;;;;4955165;29;20231;-75
2021/10/12 11:23:11;;;;;;;3.77;1.37;;;16.30;99.90;;;;;;4955092;28;20211;-79
2021/10/12 11:25:38;;;;;;;4.63;1.17;;;16.20;99.90;;;;;;4955227;29;20235;-78
2021/10/12 11:28:11;;;;;;;2.30;0.90;;;16.30;99.90;;;;;;4954780;29;20799;-79
2021/10/12 11:30:39;;;;;;;5.50;1.13;;;16.30;99.90;;;;;;4955449;29;20212;-80
2021/10/12 11:33:07;;;;;;;3.70;1.30;;;16.40;99.90;;;;;;4955232;28;20234;-78
2021/10/12 11:35:36;;;;;;;2.10;1.00;;;16.40;99.90;;;;;;4955028;29;20671;-78
2021/10/12 11:38:04;;;;;;;3.83;1.33;;;16.30;99.90;;;;;;4955164;29;20215;-77
2021/10/12 11:40:32;;;;;;;5.10;1.20;;;16.30;99.90;;;;;;4954781;29;20563;-78
2021/10/12 11:43:00;;;;;;;3.00;1.07;;;16.20;99.90;;;;;;4954919;28;20235;-78
2021/10/12 11:45:29;;;;;;;4.97;1.20;;;16.20;99.90;;;;;;4954932;29;20566;-79
2021/10/12 11:47:56;;;;;;;6.60;1.10;;;16.30;99.90;;;;;;4954641;29;20658;-79
2021/10/12 11:50:23;;;;;;;4.30;1.43;;;16.20;99.90;;;;;;4954869;28;20219;-76
2021/10/12 11:52:52;;;;;;;5.57;1.30;;;16.00;99.90;;;;;;4954746;28;20258;-78
2021/10/12 11:55:23;;;;;;;3.00;1.50;;;15.80;99.90;;;;;;4954494;29;20218;-80
2021/10/12 11:57:50;;;;;;;1.30;0.90;;;15.70;99.90;;;;;;4954812;29;20655;-79
2021/10/12 12:00:18;;;;;;;5.53;1.20;;;15.30;99.90;;;;;;4954812;29;20675;-78
2021/10/12 12:02:47;;;;;;;5.07;1.30;;;15.30;99.90;;;;;;4954671;28;20259;-79
2021/10/12 12:05:13;;;;;;;5.20;1.10;;;15.30;99.90;;;;;;4954456;29;20215;-80
2021/10/12 12:07:44;;;;;;;4.43;1.13;;;15.30;99.90;;;;;;4954264;29;20685;-80
2021/10/12 12:10:12;;;;;;;5.67;1.20;;;15.30;99.90;;;;;;4955040;29;20575;-80
2021/10/12 12:12:39;;;;;;;4.87;1.20;;;15.30;99.90;;;;;;4954966;28;20228;-81
2021/10/12 12:15:07;;;;;;;1.97;0.97;;;15.20;99.90;;;;;;4954654;29;20216;-83
2021/10/12 12:17:36;;;;;;;3.77;0.97;;;15.00;99.90;;;;;;4954853;29;20211;-85
2021/10/12 12:20:14;;;;;;;3.67;1.10;;;14.80;99.90;;;;;;4954410;29;20223;-79
2021/10/12 12:22:46;;;;;;;7.10;1.80;;;14.70;99.90;;;;;;4954434;28;20239;-81
2021/10/12 12:25:20;;;;;;;4.80;1.30;;;14.70;99.90;;;;;;4954782;29;20602;-79
2021/10/12 12:27:54;;;;;;;4.00;1.07;;;14.60;99.90;;;;;;4954457;29;20574;-82
2021/10/12 12:30:32;;;;;;;6.03;1.20;;;14.50;99.90;;;;;;4954389;28;20211;-82
2021/10/12 12:33:00;;;;;;;2.27;1.40;;;14.60;99.90;;;;;;4954367;28;20307;-78
2021/10/12 12:35:29;;;;;;;4.73;1.47;;;14.70;99.90;;;;;;4955347;28;20216;-80
2021/10/12 12:38:00;;;;;;;4.23;1.77;;;14.90;99.90;;;;;;4957998;29;20204;-81
2021/10/12 12:40:29;;;;;;;4.13;1.47;;;14.90;99.90;;;;;;4958097;29;20627;-81
2021/10/12 12:42:57;;;;;;;4.77;1.33;;;15.10;99.90;;;;;;4954517;28;20241;-74
2021/10/12 12:45:25;;;;;;;4.43;1.20;;;15.30;99.90;;;;;;4956354;29;20298;-75
2021/10/12 12:47:54;;;;;;;4.83;1.40;;;15.50;99.90;;;;;;4957462;29;20227;-80
2021/10/12 12:50:27;;;;;;;2.23;1.20;;;15.80;99.90;;;;;;4957982;29;20671;-80
2021/10/12 12:52:57;;;;;;;3.30;1.40;;;15.80;99.90;;;;;;4957751;29;20228;-76
2021/10/12 12:55:35;;;;;;;1.93;1.30;;;15.90;99.90;;;;;;4957729;29;20663;-78
2021/10/12 12:58:02;;;;;;;2.67;1.37;;;16.10;99.90;;;;;;4957882;29;20214;-79
2021/10/12 13:00:29;;;;;;;4.20;1.17;;;16.10;99.90;;;;;;4958171;29;20218;-79
2021/10/12 13:02:57;;;;;;;5.77;1.20;;;16.00;99.90;;;;;;4957358;29;20239;-81
2021/10/12 13:05:25;;;;;;;3.07;1.10;;;15.90;99.90;;;;;;4957337;29;20220;-78
2021/10/12 13:07:53;;;;;;;2.60;1.33;;;15.80;99.90;;;;;;4957289;29;20237;-80
2021/10/12 13:10:24;;;;;;;3.33;1.57;;;15.90;99.90;;;;;;4957303;29;20663;-78
2021/10/12 13:12:53;;;;;;;5.33;1.60;;;15.90;99.90;;;;;;4957341;29;20238;-79
2021/10/12 13:15:20;;;;;;;2.13;1.20;;;16.00;99.90;;;;;;4957336;29;20212;-79
2021/10/12 13:17:47;;;;;;;1.50;1.20;;;16.20;99.90;;;;;;4957685;29;20212;-79
2021/10/12 13:20:14;;;;;;;2.27;1.37;;;16.30;99.90;;;;;;4957322;29;20570;-78
2021/10/12 13:22:42;;;;;;;5.93;1.13;;;16.20;99.90;;;;;;4957194;29;20330;-79
2021/10/12 13:25:11;;;;;;;4.57;1.57;;;16.20;99.90;;;;;;4957003;29;20203;-79
2021/10/12 13:27:39;;;;;;;3.87;1.53;;;16.30;99.90;;;;;;4957050;29;20212;-78
2021/10/12 13:30:07;;;;;;;4.70;1.53;;;16.40;99.90;;;;;;4957357;28;20564;-79
2021/10/12 13:32:34;;;;;;;2.07;1.40;;;16.60;99.90;;;;;;4956929;29;20587;-79
2021/10/12 13:35:01;;;;;;;1.63;1.20;;;16.60;99.90;;;;;;4957474;29;20208;-80
2021/10/12 13:37:29;;;;;;;2.73;1.50;;;16.50;99.90;;;;;;4956976;29;20208;-79
2021/10/12 13:39:56;;;;;;;2.30;1.33;;;16.30;99.90;;;;;;4957317;29;20208;-79
2021/10/12 13:42:22;;;;;;;3.33;1.40;;;16.10;99.90;;;;;;4956923;29;20236;-79
2021/10/12 13:44:52;;;;;;;2.20;1.33;;;15.80;99.90;;;;;;4956496;29;20243;-80
2021/10/12 13:47:19;;;;;;;5.37;1.57;;;15.70;99.90;;;;;;4956586;28;20207;-78
2021/10/12 13:49:47;;;;;;;4.80;1.67;;;15.50;99.90;;;;;;4956644;29;20212;-81
2021/10/12 13:52:14;;;;;;;5.60;1.17;;;15.50;99.90;;;;;;4956637;29;20251;-82
2021/10/12 13:54:42;;;;;;;4.37;1.73;;;15.40;99.90;;;;;;4957053;29;20246;-80
2021/10/12 13:57:09;;;;;;;5.20;1.47;;;15.30;99.90;;;;;;4956945;29;20663;-82
2021/10/12 13:59:36;;;;;;;4.57;1.87;;;15.30;99.90;;;;;;4957027;29;20207;-82
2021/10/12 14:02:05;;;;;;;8.00;2.00;;;15.30;99.90;;;;;;4956866;29;20737;-82
2021/10/12 14:04:33;;;;;;;5.50;1.90;;;15.20;99.90;;;;;;4956777;29;20216;-83
2021/10/12 14:06:59;;;;;;;5.67;1.93;;;15.10;99.90;;;;;;4956793;29;20208;-80
2021/10/12 14:09:26;;;;;;;3.73;1.43;;;15.00;99.90;;;;;;4956891;28;20689;-82
2021/10/12 14:11:53;;;;;;;3.97;1.90;;;15.00;99.90;;;;;;4956813;29;20234;-81
2021/10/12 14:14:20;;;;;;;4.70;2.40;;;14.90;99.90;;;;;;4956822;29;20215;-83
2021/10/12 14:16:49;;;;;;;4.67;1.50;;;14.90;99.90;;;;;;4956384;29;20205;-81
2021/10/12 14:19:17;;;;;;;5.60;1.80;;;14.90;99.90;;;;;;4956416;29;20623;-81
2021/10/12 14:21:44;;;;;;;3.07;1.67;;;14.80;99.90;;;;;;4956119;29;20236;-81
2021/10/12 14:24:10;;;;;;;3.93;1.83;;;14.70;99.90;;;;;;4956379;29;20211;-82
2021/10/12 14:26:37;;;;;;;2.13;1.47;;;14.70;99.90;;;;;;4956455;29;20212;-81
2021/10/12 14:29:04;;;;;;;6.57;1.90;;;14.60;99.90;;;;;;4956749;29;20208;-80
2021/10/12 14:31:32;;;;;;;1.30;1.20;;;14.60;99.90;;;;;;4955953;29;20232;-80
2021/10/12 14:33:59;;;;;;;5.03;1.60;;;14.60;99.90;;;;;;4956422;29;20208;-79
2021/10/12 14:36:27;;;;;;;5.73;1.77;;;14.50;99.90;;;;;;4955980;29;20207;-81
2021/10/12 14:38:54;;;;;;;3.47;1.87;;;14.50;99.90;;;;;;4955820;29;20215;-81
2021/10/12 14:41:21;;;;;;;3.07;1.73;;;14.50;99.90;;;;;;4956050;29;20582;-80
2021/10/12 14:43:47;;;;;;;2.90;1.70;;;14.60;99.90;;;;;;4955967;29;20214;-81
2021/10/12 14:46:14;;;;;;;3.77;2.13;;;14.70;99.90;;;;;;4956117;29;20215;-82
2021/10/12 14:48:41;;;;;;;4.13;2.00;;;14.80;99.90;;;;;;4956236;29;20211;-80
2021/10/12 14:51:08;;;;;;;4.03;2.10;;;14.80;99.90;;;;;;4951997;29;20238;-78
2021/10/12 14:53:37;;;;;;;9.67;2.27;;;14.80;99.90;;;;;;4954786;28;20219;-77
2021/10/12 14:56:04;;;;;;;5.00;2.17;;;14.80;99.90;;;;;;4963122;29;20671;-86
2021/10/12 14:58:31;;;;;;;4.17;1.93;;;14.80;99.90;;;;;;4957905;28;20208;-89
2021/10/12 15:00:58;;;;;;;5.73;1.83;;;14.90;99.90;;;;;;4959249;29;20303;-90
2021/10/12 15:03:25;;;;;;;4.73;2.10;;;14.90;99.90;;;;;;4956628;29;20240;-90
2021/10/12 15:05:51;;;;;;;3.70;2.17;;;15.00;99.90;;;;;;4956054;29;20242;-90
2021/10/12 15:08:18;;;;;;;4.30;2.03;;;15.00;99.90;;;;;;4956849;29;20303;-87
2021/10/12 15:10:47;;;;;;;3.33;2.10;;;15.10;99.90;;;;;;4956736;29;20690;-87
2021/10/12 15:13:13;;;;;;;4.43;2.50;;;15.10;99.90;;;;;;4955630;29;20303;-89
2021/10/12 15:15:40;;;;;;;5.20;2.00;;;15.10;99.90;;;;;;4956734;29;20211;-90
2021/10/12 15:18:07;;;;;;;5.13;1.73;;;15.20;99.90;;;;;;4956509;29;20302;-75
2021/10/12 15:20:34;;;;;;;4.77;1.87;;;15.10;99.90;;;;;;4941271;28;20211;-80
2021/10/12 15:23:01;;;;;;;4.87;1.90;;;15.20;99.90;;;;;;4953450;28;20243;-82
2021/10/12 15:25:27;;;;;;;3.73;1.80;;;15.20;99.90;;;;;;4955743;29;20211;-86
2021/10/12 15:27:56;;;;;;;3.83;2.00;;;15.10;99.90;;;;;;4956489;28;20218;-86
2021/10/12 15:30:23;;;;;;;5.30;1.90;;;15.10;99.90;;;;;;4956673;28;20212;-89
2021/10/12 15:32:50;;;;;;;4.10;2.20;;;15.00;99.90;;;;;;4956482;28;20254;-84
2021/10/12 15:35:18;;;;;;;3.90;1.57;;;14.90;99.90;;;;;;4955636;29;20307;-78
2021/10/12 15:37:46;;;;;;;4.40;1.63;;;14.70;99.90;;;;;;4955436;29;20208;-85
2021/10/12 15:40:13;;;;;;;2.10;1.60;;;14.70;99.90;;;;;;4955425;28;20215;-80
2021/10/12 15:42:39;;;;;;;2.20;1.40;;;14.60;99.90;;;;;;4955648;28;20236;-86
2021/10/12 15:45:09;;;;;;;2.57;1.63;;;14.50;99.90;;;;;;4956717;29;20215;-76
2021/10/12 15:47:38;;;;;;;4.10;1.90;;;14.30;99.90;;;;;;4956324;29;20259;-79
2021/10/12 15:50:06;;;;;;;2.80;1.80;;;14.40;99.90;;;;;;4957973;29;20204;-76
2021/10/12 15:52:33;;;;;;;2.37;1.50;;;14.50;99.90;;;;;;4958429;29;20227;-79
2021/10/12 15:55:02;;;;;;;2.97;1.40;;;14.50;99.90;;;;;;4961639;29;20219;-79
2021/10/12 15:57:30;;;;;;;3.70;1.50;;;14.50;99.90;;;;;;4964559;29;20215;-81
2021/10/12 15:59:57;;;;;;;2.70;1.50;;;14.50;99.90;;;;;;4958833;29;20208;-78
2021/10/12 16:02:27;;;;;;;9.57;4.23;;;14.30;99.90;;;;;;4954977;28;20242;-83
2021/10/12 16:04:53;;;;;;;2.37;1.40;;;14.30;99.90;;;;;;4956485;29;20310;-83
2021/10/12 16:07:20;;;;;;;2.87;1.63;;;14.30;99.90;;;;;;4955199;29;20219;-86
2021/10/12 16:09:47;;;;;;;7.10;2.60;;;14.30;99.90;;;;;;4955093;29;21036;-86
2021/10/12 16:12:16;;;;;;;4.17;3.00;;;14.20;99.90;;;;;;4955632;28;20295;-85
2021/10/12 16:23:02;;;;;;;5.50;1.60;;;14.40;99.90;;;;;;4955363;28;20243;-80
2021/10/12 16:25:29;;;;;;;4.73;1.60;;;14.50;99.90;;;;;;4955565;29;20235;-79
2021/10/12 16:27:56;;;;;;;9.97;4.13;;;14.50;99.90;;;;;;4955570;29;20738;-78
2021/10/12 16:30:23;;;;;;;4.27;2.27;;;14.50;99.90;;;;;;4955187;29;20299;-79
2021/10/12 16:32:51;;;;;;;28.77;10.63;;;14.50;99.90;;;;;;4954772;28;20259;-78
2021/10/12 16:35:20;;;;;;;6.17;2.20;;;14.60;99.90;;;;;;4954336;29;20211;-79
2021/10/12 16:37:47;;;;;;;20.40;7.17;;;14.50;99.90;;;;;;4955152;28;20212;-77
2021/10/12 16:40:16;;;;;;;4.50;1.93;;;14.50;99.90;;;;;;4954346;29;20204;-77
2021/10/12 16:42:44;;;;;;;4.87;2.40;;;14.50;99.90;;;;;;4954614;28;20248;-87
2021/10/12 16:45:11;;;;;;;6.60;3.70;;;14.40;99.90;;;;;;4954686;29;20208;-80
2021/10/12 16:47:37;;;;;;;4.63;2.43;;;14.40;99.90;;;;;;4956450;29;20212;-83
2021/10/12 16:50:07;;;;;;;2.67;1.23;;;14.40;99.90;;;;;;4954584;29;20663;-86
2021/10/12 16:52:37;;;;;;;3.60;1.67;;;14.30;99.90;;;;;;4953965;28;20228;-80
2021/10/12 16:55:04;;;;;;;5.13;2.50;;;14.30;99.90;;;;;;4957113;29;20204;-80
2021/10/12 16:57:31;;;;;;;6.83;1.60;;;14.30;99.90;;;;;;4955008;29;20204;-77
2021/10/12 16:59:58;;;;;;;2.70;0.80;;;14.20;99.90;;;;;;4955549;29;20255;-78
2021/10/12 17:02:25;;;;;;;1.67;0.97;;;14.10;99.90;;;;;;4954335;28;20242;-77
2021/10/12 17:04:52;;;;;;;1.93;1.00;;;14.20;99.90;;;;;;4955246;28;20739;-80
2021/10/12 17:07:20;;;;;;;2.10;1.00;;;14.30;99.90;;;;;;4953481;28;20212;-77
2021/10/12 17:09:48;;;;;;;1.77;0.90;;;14.30;99.90;;;;;;4941213;29;20200;-80
2021/10/12 17:12:15;;;;;;;1.50;0.80;;;14.20;99.90;;;;;;4955357;28;20232;-76
2021/10/12 17:14:41;;;;;;;3.20;1.13;;;14.20;99.90;;;;;;4955089;29;20682;-77
2021/10/12 17:17:08;;;;;;;2.90;1.00;;;14.20;99.90;;;;;;4955881;28;20204;-86
2021/10/12 17:19:35;;;;;;;2.70;0.90;;;14.30;99.90;;;;;;4956878;28;20228;-80
2021/10/12 17:22:05;;;;;;;1.03;0.83;;;14.10;99.90;;;;;;4957841;28;20231;-85
2021/10/12 17:24:34;;;;;;;3.47;0.80;;;14.20;99.90;;;;;;4960346;28;20212;-81
2021/10/12 17:27:01;;;;;;;1.40;0.93;;;14.20;99.90;;;;;;4959321;28;20208;-84
2021/10/12 17:29:28;;;;;;;0.97;0.87;;;14.20;99.90;;;;;;4958478;28;20218;-86
2021/10/12 17:31:55;;;;;;;2.40;0.93;;;14.00;99.90;;;;;;4960350;28;20232;-85
2021/10/12 17:34:22;;;;;;;2.77;0.70;;;14.00;99.90;;;;;;4958335;28;20689;-83
2021/10/12 17:36:49;;;;;;;2.50;0.57;;;13.80;99.90;;;;;;4958067;28;20212;-87
2021/10/12 17:39:19;;;;;;;2.20;0.60;;;13.70;99.90;;;;;;4958321;28;20563;-86
2021/10/12 17:41:47;;;;;;;5.47;0.83;;;13.70;99.90;;;;;;4958416;28;20232;-88
2021/10/12 17:44:15;;;;;;;0.73;0.40;;;13.60;99.90;;;;;;4958985;28;20236;-89
2021/10/12 17:46:44;;;;;;;0.43;0.40;;;13.50;99.90;;;;;;4958983;28;20204;-88
2021/10/12 17:49:11;;;;;;;1.43;0.50;;;13.20;99.90;;;;;;4958394;28;20212;-88
2021/10/12 17:51:37;;;;;;;0.60;0.40;;;13.10;99.90;;;;;;4958064;28;20235;-89
2021/10/12 17:54:10;;;;;;;2.93;0.90;;;13.00;99.90;;;;;;4958463;28;20318;-88
2021/10/12 17:56:38;;;;;;;4.00;0.70;;;12.90;99.90;;;;;;4960028;28;20204;-88
2021/10/12 17:59:06;;;;;;;2.87;0.77;;;12.60;99.90;;;;;;4958608;28;20619;-88
2021/10/12 18:01:33;;;;;;;1.37;0.60;;;12.60;99.90;;;;;;4959054;28;20228;-87
2021/10/12 18:04:00;;;;;;;1.13;0.57;;;12.60;99.90;;;;;;4960450;28;20247;-87
2021/10/12 18:06:26;;;;;;;2.33;0.70;;;12.60;99.90;;;;;;4964042;28;20677;-86
2021/10/12 18:08:53;;;;;;;1.00;0.67;;;12.40;99.90;;;;;;4959507;28;20783;-87
2021/10/12 18:11:27;;;;;;;2.87;0.60;;;12.40;99.90;;;;;;4959662;28;20231;-86
2021/10/12 18:13:55;;;;;;;0.80;0.40;;;12.30;99.90;;;;;;4959669;28;20218;-86
2021/10/12 18:16:25;;;;;;;2.67;0.60;;;12.30;99.90;;;;;;4958011;28;20207;-87
2021/10/12 18:18:53;;;;;;;1.03;0.70;;;12.20;99.90;;;;;;4959183;28;20298;-87
2021/10/12 18:21:22;;;;;;;1.13;0.70;;;12.10;99.90;;;;;;4954959;28;20240;-84
2021/10/12 18:23:50;;;;;;;3.03;0.80;;;11.90;99.90;;;;;;4944253;28;20299;-85
2021/10/12 18:26:17;;;;;;;5.13;1.23;;;11.90;99.90;;;;;;4948837;29;20204;-86
2021/10/12 18:28:45;;;;;;;2.73;0.70;;;11.80;99.90;;;;;;4952303;29;20271;-85
2021/10/12 18:31:12;;;;;;;2.50;0.60;;;11.80;99.90;;;;;;4955268;28;20232;-86
2021/10/12 18:33:42;;;;;;;1.27;0.70;;;11.80;99.90;;;;;;4947764;29;20291;-83
2021/10/12 18:36:10;;;;;;;2.50;0.80;;;11.80;99.90;;;;;;4949447;29;20227;-86
2021/10/12 18:38:37;;;;;;;2.50;0.50;;;11.80;99.90;;;;;;4948165;29;20200;-87
2021/10/12 18:41:04;;;;;;;2.93;0.70;;;11.70;99.90;;;;;;4945228;28;20215;-87
2021/10/12 18:43:31;;;;;;;1.73;0.70;;;11.60;99.90;;;;;;4950753;29;20250;-86
2021/10/12 18:45:58;;;;;;;3.13;1.20;;;11.50;99.90;;;;;;4950184;29;20208;-87
2021/10/12 18:48:25;;;;;;;4.23;1.30;;;11.50;99.90;;;;;;4952664;29;20207;-87
2021/10/12 18:50:53;;;;;;;3.00;1.10;;;11.50;99.90;;;;;;4950858;28;20212;-86
2021/10/12 18:53:22;;;;;;;2.40;1.13;;;11.30;99.90;;;;;;4953898;28;20635;-85
2021/10/12 18:55:49;;;;;;;1.80;0.97;;;11.20;99.90;;;;;;4952381;29;20205;-86
2021/10/12 18:58:16;;;;;;;3.17;1.00;;;11.20;99.90;;;;;;4945499;29;20282;-87
2021/10/12 19:00:44;;;;;;;1.57;1.07;;;11.20;99.90;;;;;;4946208;29;20302;-85
2021/10/12 19:03:15;;;;;;;2.63;0.93;;;11.10;99.90;;;;;;4944084;29;20233;-86
2021/10/12 19:05:42;;;;;;;4.13;1.00;;;11.00;99.90;;;;;;4954637;29;20219;-86
2021/10/12 19:08:10;;;;;;;6.80;1.50;;;11.00;99.90;;;;;;4942009;29;20209;-85
2021/10/12 19:10:39;;;;;;;2.13;1.20;;;10.80;99.90;;;;;;4944522;29;20220;-86
2021/10/12 19:13:06;;;;;;;2.67;1.00;;;10.70;99.90;;;;;;4948818;28;20291;-79
2021/10/12 19:15:32;;;;;;;3.30;1.17;;;10.60;99.90;;;;;;4951754;29;20208;-81
2021/10/12 19:17:59;;;;;;;4.57;1.87;;;10.60;99.90;;;;;;4945969;29;20209;-80
2021/10/12 19:20:27;;;;;;;3.33;1.50;;;10.50;99.90;;;;;;4947731;29;20215;-80
2021/10/12 19:22:54;;;;;;;3.87;1.50;;;10.40;99.90;;;;;;4946076;29;20232;-80
2021/10/12 19:25:22;;;;;;;3.47;1.37;;;10.20;99.90;;;;;;4946409;29;20236;-80
2021/10/12 19:27:49;;;;;;;5.63;2.07;;;10.20;99.90;;;;;;4946052;29;20560;-80
2021/10/12 19:30:16;;;;;;;5.67;1.90;;;10.30;99.90;;;;;;4944002;29;20230;-78
2021/10/12 19:32:43;;;;;;;4.80;2.10;;;10.30;99.90;;;;;;4949683;29;20247;-80
2021/10/12 19:35:09;;;;;;;6.00;1.70;;;10.30;99.90;;;;;;4939749;29;20213;-80
2021/10/12 19:37:39;;;;;;;3.27;1.80;;;10.20;99.90;;;;;;4947353;29;20223;-81
2021/10/12 19:40:08;;;;;;;2.40;1.47;;;10.20;99.90;;;;;;4945663;29;20226;-82
2021/10/12 19:42:36;;;;;;;2.00;1.50;;;10.00;99.90;;;;;;4947617;28;20227;-81
2021/10/12 19:45:03;;;;;;;2.33;1.40;;;9.90;99.90;;;;;;4947279;28;20233;-81
2021/10/12 19:47:30;;;;;;;2.90;1.30;;;9.90;99.90;;;;;;4946073;29;20212;-81
2021/10/12 19:49:57;;;;;;;1.43;1.13;;;9.80;99.90;;;;;;4941058;29;20216;-81
2021/10/12 19:52:23;;;;;;;8.00;1.30;;;9.80;99.90;;;;;;4950378;28;20228;-80
2021/10/12 19:54:50;;;;;;;6.20;1.10;;;9.70;99.90;;;;;;4948579;29;20214;-80
2021/10/12 19:57:17;;;;;;;3.30;1.20;;;9.70;99.90;;;;;;4950161;29;20220;-80
2021/10/12 19:59:45;;;;;;;2.87;1.30;;;9.70;99.90;;;;;;4946299;29;20204;-80
2021/10/12 20:04:58;;;;;;;3.10;1.00;;;9.60;99.90;;;;;;4945106;29;20250;-81
2021/10/12 20:07:24;;;;;;;4.63;1.50;;;9.60;99.90;;;;;;4940207;29;20209;-81
2021/10/12 20:09:51;;;;;;;1.40;0.90;;;9.50;99.90;;;;;;4947413;29;20219;-74
2021/10/12 20:12:18;;;;;;;3.63;1.50;;;9.40;99.90;;;;;;4947345;29;20319;-81
2021/10/12 20:14:47;;;;;;;1.70;1.03;;;9.40;99.90;;;;;;4944289;29;20205;-81
2021/10/12 20:17:13;;;;;;;2.37;1.00;;;9.30;99.90;;;;;;4950836;28;20215;-81
2021/10/12 20:22:25;;;;;;;4.30;1.37;;;9.20;99.90;;;;;;4942738;29;20644;-80
2021/10/12 20:24:56;;;;;;;4.50;1.60;;;9.20;99.90;;;;;;4946635;29;20686;-82
2021/10/12 20:27:23;;;;;;;2.63;1.40;;;9.20;99.90;;;;;;4944616;29;20222;-78
2021/10/12 20:29:51;;;;;;;2.20;1.13;;;9.20;99.90;;;;;;4942524;29;20240;-81
2021/10/12 20:32:18;;;;;;;3.13;2.00;;;9.20;99.90;;;;;;4950038;29;20264;-79
2021/10/12 20:34:45;;;;;;;3.97;1.80;;;9.20;99.90;;;;;;4943381;29;20208;-79
2021/10/12 20:37:12;;;;;;;3.73;1.33;;;9.20;99.90;;;;;;4943330;29;20300;-80
2021/10/12 20:39:39;;;;;;;4.60;1.73;;;9.10;99.90;;;;;;4946006;29;20215;-78
2021/10/12 20:42:06;;;;;;;3.37;1.97;;;9.10;99.90;;;;;;4950871;28;20248;-81
2021/10/12 20:44:34;;;;;;;3.40;1.80;;;9.10;99.90;;;;;;4944916;28;20242;-80
2021/10/12 20:47:05;;;;;;;8.37;2.30;;;9.10;99.90;;;;;;4946203;28;20705;-80
2021/10/12 20:49:32;;;;;;;9.87;2.87;;;9.00;99.90;;;;;;4947970;29;20205;-80
2021/10/12 20:51:59;;;;;;;9.77;2.60;;;9.00;99.90;;;;;;4945460;29;20230;-79
2021/10/12 20:54:28;;;;;;;7.60;2.43;;;8.90;99.90;;;;;;4951284;29;20211;-79
2021/10/12 20:56:55;;;;;;;7.30;3.00;;;8.70;99.90;;;;;;4951331;28;20655;-79
2021/10/12 20:59:22;;;;;;;9.13;2.90;;;8.80;99.90;;;;;;4952364;29;20208;-79
2021/10/12 21:01:49;;;;;;;5.80;2.67;;;8.80;99.90;;;;;;4943440;29;20225;-81
2021/10/12 21:04:17;;;;;;;5.53;2.97;;;8.90;99.90;;;;;;4948593;29;20236;-80
2021/10/12 21:06:44;;;;;;;6.87;2.80;;;8.90;99.90;;;;;;4949425;29;20562;-76
2021/10/12 21:09:11;;;;;;;8.63;2.77;;;8.80;99.90;;;;;;4951425;29;20213;-78
2021/10/12 21:11:38;;;;;;;6.97;2.87;;;8.60;99.90;;;;;;4955496;28;20228;-80
2021/10/12 21:14:04;;;;;;;9.27;3.70;;;8.60;99.90;;;;;;4952467;29;20306;-75
